createdAt,value
2017-12-11T00:00:19.827Z,94.27
2017-12-11T00:02:47.451Z,94.22
2017-12-11T00:05:15.110Z,94.32
2017-12-11T00:07:42.706Z,94.51
2017-12-11T00:10:10.314Z,94.46
2017-12-11T00:12:37.893Z,94.47
2017-12-11T00:15:05.510Z,94.66
2017-12-11T00:17:33.093Z,94.51
2017-12-11T00:20:00.980Z,94.37
2017-12-11T00:22:40.729Z,94.43
2017-12-11T00:25:08.342Z,94.59
2017-12-11T00:27:35.964Z,94.68
2017-12-11T00:30:03.566Z,94.78
2017-12-11T00:32:31.149Z,94.84
2017-12-11T00:34:59.045Z,95.10
2017-12-11T00:37:26.635Z,94.97
2017-12-11T00:39:54.261Z,95.07
2017-12-11T00:42:21.841Z,95.16
2017-12-11T00:44:49.436Z,95.28
2017-12-11T00:47:17.159Z,95.38
2017-12-11T00:49:44.748Z,95.29
2017-12-11T00:52:12.504Z,95.36
2017-12-11T00:54:40.104Z,95.34
2017-12-11T00:57:07.730Z,95.27
2017-12-11T00:59:35.327Z,95.22
2017-12-11T01:02:02.904Z,95.21
2017-12-11T01:04:30.532Z,95.05
2017-12-11T01:06:58.462Z,95.05
2017-12-11T01:09:26.063Z,94.85
2017-12-11T01:11:53.704Z,94.78
2017-12-11T01:14:21.297Z,94.75
2017-12-11T01:16:48.936Z,94.52
2017-12-11T01:19:16.520Z,94.45
2017-12-11T01:21:44.106Z,94.07
2017-12-11T01:24:11.996Z,94.31
2017-12-11T01:26:39.588Z,93.97
2017-12-11T01:29:07.216Z,94.23
2017-12-11T01:31:34.792Z,93.94
2017-12-11T01:34:02.387Z,93.87
2017-12-11T01:36:29.987Z,93.68
2017-12-11T01:38:57.576Z,93.85
2017-12-11T01:41:25.188Z,93.79
2017-12-11T01:43:52.824Z,94.02
2017-12-11T01:46:20.419Z,94.29
2017-12-11T01:48:48.425Z,94.47
2017-12-11T01:51:16.018Z,94.89
2017-12-11T01:53:43.632Z,94.86
2017-12-11T01:56:11.238Z,94.49
2017-12-11T01:58:38.806Z,94.36
2017-12-11T02:01:06.412Z,94.62
2017-12-11T02:03:34.312Z,94.55
2017-12-11T02:06:01.946Z,94.67
2017-12-11T02:08:29.516Z,94.51
2017-12-11T02:10:57.103Z,94.18
2017-12-11T02:13:24.770Z,94.04
2017-12-11T02:15:52.363Z,93.71
2017-12-11T02:18:19.990Z,93.41
2017-12-11T02:20:48.882Z,93.16
2017-12-11T02:23:16.916Z,92.81
2017-12-11T02:25:44.820Z,92.62
2017-12-11T02:28:12.697Z,92.43
2017-12-11T02:30:40.324Z,92.32
2017-12-11T02:33:07.912Z,92.21
2017-12-11T02:35:35.477Z,91.87
2017-12-11T02:38:03.127Z,91.93
2017-12-11T02:40:30.789Z,91.92
2017-12-11T02:42:58.451Z,91.99
2017-12-11T02:45:26.061Z,92.03
2017-12-11T02:47:53.895Z,91.98
2017-12-11T02:50:21.492Z,92.03
2017-12-11T02:52:49.108Z,92.12
2017-12-11T02:55:16.736Z,91.91
2017-12-11T02:57:44.317Z,91.89
2017-12-11T03:00:12.194Z,91.79
2017-12-11T03:02:39.804Z,91.83
2017-12-11T03:05:07.629Z,91.83
2017-12-11T03:07:35.255Z,91.96
2017-12-11T03:10:02.832Z,91.92
2017-12-11T03:12:30.409Z,91.87
2017-12-11T03:14:58.274Z,91.99
2017-12-11T03:17:25.854Z,92.05
2017-12-11T03:19:53.460Z,92.10
2017-12-11T03:22:21.060Z,91.95
2017-12-11T03:24:48.633Z,91.85
2017-12-11T03:27:16.224Z,91.91
2017-12-11T03:29:43.842Z,91.76
2017-12-11T03:32:11.420Z,91.59
2017-12-11T03:34:39.070Z,91.59
2017-12-11T03:37:06.772Z,91.72
2017-12-11T03:39:34.369Z,91.90
2017-12-11T03:42:02.060Z,92.11
2017-12-11T03:44:29.920Z,91.88
2017-12-11T03:46:57.502Z,91.85
2017-12-11T03:49:25.123Z,91.67
2017-12-11T03:51:52.697Z,91.69
2017-12-11T03:54:20.320Z,91.84
2017-12-11T03:56:47.911Z,92.00
2017-12-11T03:59:15.566Z,91.96
2017-12-11T04:01:43.232Z,91.96
2017-12-11T04:04:10.807Z,91.99
2017-12-11T04:06:38.444Z,91.99
2017-12-11T04:09:06.025Z,91.88
2017-12-11T04:11:33.851Z,91.74
2017-12-11T04:14:01.496Z,91.58
2017-12-11T04:16:29.336Z,91.01
2017-12-11T04:18:56.964Z,90.77
2017-12-11T04:21:24.557Z,90.80
2017-12-11T04:23:52.181Z,89.68
2017-12-11T04:26:20.088Z,88.66
2017-12-11T04:28:47.710Z,88.49
2017-12-11T04:31:15.376Z,88.17
2017-12-11T04:33:42.969Z,87.30
2017-12-11T04:36:10.595Z,86.53
2017-12-11T04:38:38.256Z,86.46
2017-12-11T04:41:05.828Z,86.85
2017-12-11T04:43:33.478Z,86.22
2017-12-11T04:46:01.055Z,85.53
2017-12-11T04:48:28.634Z,85.27
2017-12-11T04:50:56.258Z,85.56
2017-12-11T04:53:23.832Z,85.54
2017-12-11T04:55:51.473Z,85.87
2017-12-11T04:58:19.300Z,85.06
2017-12-11T05:00:46.881Z,83.55
2017-12-11T05:03:14.484Z,81.66
2017-12-11T05:05:42.063Z,81.70
2017-12-11T05:08:09.689Z,80.85
2017-12-11T05:10:37.289Z,82.11
2017-12-11T05:13:04.902Z,80.80
2017-12-11T05:15:32.502Z,80.28
2017-12-11T05:18:00.097Z,80.16
2017-12-11T05:20:27.701Z,79.49
2017-12-11T05:22:55.269Z,79.75
2017-12-11T05:25:22.840Z,80.45
2017-12-11T05:27:50.456Z,79.74
2017-12-11T05:30:18.040Z,79.34
2017-12-11T05:32:45.665Z,79.47
2017-12-11T05:35:13.338Z,79.67
2017-12-11T05:37:40.923Z,79.07
2017-12-11T05:40:08.540Z,78.66
2017-12-11T05:42:36.141Z,79.60
2017-12-11T05:47:37.612Z,78.62
2017-12-11T05:50:05.563Z,78.89
2017-12-11T05:52:33.152Z,78.07
2017-12-11T05:55:00.724Z,78.99
2017-12-11T05:57:28.340Z,78.70
2017-12-11T05:59:55.924Z,79.28
2017-12-11T06:02:23.584Z,79.34
2017-12-11T06:04:51.168Z,78.88
2017-12-11T06:07:18.764Z,79.82
2017-12-11T06:09:46.392Z,79.12
2017-12-11T06:12:14.029Z,80.13
2017-12-11T06:14:41.665Z,80.44
2017-12-11T06:17:09.259Z,80.79
2017-12-11T06:19:37.113Z,80.47
2017-12-11T06:22:04.735Z,80.64
2017-12-11T06:24:32.311Z,79.92
2017-12-11T06:26:59.933Z,80.19
2017-12-11T06:29:27.532Z,79.04
2017-12-11T06:31:55.121Z,78.47
2017-12-11T06:34:22.729Z,78.18
2017-12-11T06:36:50.344Z,78.91
2017-12-11T06:39:18.064Z,80.02
2017-12-11T06:41:45.652Z,78.75
2017-12-11T06:44:13.256Z,78.74
2017-12-11T06:46:40.878Z,79.43
2017-12-11T06:49:08.757Z,79.90
2017-12-11T06:51:36.727Z,79.12
2017-12-11T06:54:04.593Z,78.14
2017-12-11T06:56:32.176Z,78.73
2017-12-11T06:58:59.878Z,79.07
2017-12-11T07:01:27.460Z,78.75
2017-12-11T07:03:55.069Z,78.98
2017-12-11T07:06:22.706Z,79.17
2017-12-11T07:08:50.400Z,79.01
2017-12-11T07:11:18.007Z,78.66
2017-12-11T07:13:45.592Z,79.38
2017-12-11T07:16:13.247Z,79.28
2017-12-11T07:18:40.827Z,79.64
2017-12-11T07:21:08.424Z,79.86
2017-12-11T07:23:36.041Z,79.72
2017-12-11T07:26:03.624Z,79.34
2017-12-11T07:28:31.268Z,79.41
2017-12-11T07:30:58.849Z,79.95
2017-12-11T07:33:26.498Z,79.53
2017-12-11T07:35:54.456Z,79.07
2017-12-11T07:38:22.063Z,79.45
2017-12-11T07:40:49.668Z,79.32
2017-12-11T07:43:17.259Z,79.01
2017-12-11T07:45:44.852Z,78.98
2017-12-11T07:48:12.720Z,78.66
2017-12-11T07:50:40.321Z,78.39
2017-12-11T07:53:07.928Z,78.27
2017-12-11T07:55:35.988Z,78.50
2017-12-11T07:58:04.224Z,78.30
2017-12-11T08:00:31.835Z,78.66
2017-12-11T08:02:59.404Z,78.08
2017-12-11T08:05:27.020Z,78.42
2017-12-11T08:07:54.852Z,78.18
2017-12-11T08:10:22.461Z,77.79
2017-12-11T08:12:50.320Z,77.79
2017-12-11T08:15:18.551Z,77.57
2017-12-11T08:17:46.216Z,77.22
2017-12-11T08:20:13.846Z,78.23
2017-12-11T08:22:41.456Z,77.44
2017-12-11T08:25:09.156Z,78.05
2017-12-11T08:27:36.765Z,77.74
2017-12-11T08:30:04.394Z,77.65
2017-12-11T08:32:32.016Z,77.87
2017-12-11T08:34:59.643Z,77.64
2017-12-11T08:37:27.565Z,77.74
2017-12-11T08:39:55.151Z,77.42
2017-12-11T08:42:23.097Z,77.98
2017-12-11T08:44:50.707Z,77.95
2017-12-11T08:47:18.331Z,77.54
2017-12-11T08:49:46.198Z,77.33
2017-12-11T08:52:13.790Z,77.63
2017-12-11T08:54:41.426Z,77.45
2017-12-11T08:57:09.067Z,77.44
2017-12-11T08:59:36.708Z,77.22
2017-12-11T09:02:04.355Z,77.46
2017-12-11T09:04:31.968Z,76.84
2017-12-11T09:06:59.619Z,77.27
2017-12-11T09:09:27.229Z,77.94
2017-12-11T09:11:54.883Z,77.35
2017-12-11T09:14:22.820Z,76.82
2017-12-11T09:16:50.432Z,76.79
2017-12-11T09:19:18.071Z,76.74
2017-12-11T09:21:45.652Z,76.81
2017-12-11T09:24:13.294Z,76.76
2017-12-11T09:26:40.896Z,76.98
2017-12-11T09:29:08.517Z,77.08
2017-12-11T09:31:36.124Z,77.53
2017-12-11T09:34:03.724Z,77.33
2017-12-11T09:36:31.362Z,77.32
2017-12-11T09:38:59.018Z,77.22
2017-12-11T09:41:28.129Z,77.68
2017-12-11T09:43:55.760Z,77.13
2017-12-11T09:46:23.386Z,77.05
2017-12-11T09:48:51.027Z,77.69
2017-12-11T09:51:18.649Z,77.39
2017-12-11T09:53:46.253Z,77.09
2017-12-11T09:56:13.916Z,77.49
2017-12-11T09:58:41.517Z,77.67
2017-12-11T10:01:09.088Z,77.78
2017-12-11T10:03:36.711Z,77.88
2017-12-11T10:06:04.533Z,77.12
2017-12-11T10:08:32.117Z,76.52
2017-12-11T10:10:59.734Z,76.63
2017-12-11T10:13:27.339Z,75.66
2017-12-11T10:15:54.917Z,75.43
2017-12-11T10:18:22.533Z,76.29
2017-12-11T10:20:50.136Z,75.85
2017-12-11T10:23:17.721Z,76.64
2017-12-11T10:25:45.361Z,76.94
2017-12-11T10:28:13.184Z,77.04
2017-12-11T10:30:40.807Z,77.05
2017-12-11T10:33:08.381Z,76.27
2017-12-11T10:35:35.967Z,76.79
2017-12-11T10:38:03.621Z,76.32
2017-12-11T10:40:31.249Z,76.34
2017-12-11T10:42:58.878Z,77.19
2017-12-11T10:45:26.478Z,77.01
2017-12-11T10:47:54.051Z,77.23
2017-12-11T10:50:21.908Z,77.86
2017-12-11T10:52:49.488Z,77.64
2017-12-11T10:55:17.138Z,77.22
2017-12-11T10:57:44.727Z,77.74
2017-12-11T11:00:12.356Z,77.87
2017-12-11T11:02:40.046Z,76.67
2017-12-11T11:05:07.627Z,77.21
2017-12-11T11:07:35.261Z,77.83
2017-12-11T11:10:03.269Z,78.10
2017-12-11T11:12:30.864Z,77.56
2017-12-11T11:14:58.618Z,77.43
2017-12-11T11:17:26.261Z,76.82
2017-12-11T11:19:53.882Z,77.01
2017-12-11T11:22:21.491Z,76.69
2017-12-11T11:24:49.077Z,76.82
2017-12-11T11:27:16.688Z,76.99
2017-12-11T11:29:44.292Z,77.18
2017-12-11T11:32:12.010Z,77.42
2017-12-11T11:34:39.619Z,77.88
2017-12-11T11:37:07.690Z,77.49
2017-12-11T11:39:35.328Z,77.56
2017-12-11T11:42:03.329Z,77.46
2017-12-11T11:44:30.977Z,77.78
2017-12-11T11:46:58.560Z,77.28
2017-12-11T11:49:26.383Z,76.80
2017-12-11T11:51:53.999Z,76.65
2017-12-11T11:54:21.841Z,76.86
2017-12-11T11:56:49.472Z,76.92
2017-12-11T11:59:17.095Z,77.61
2017-12-11T12:01:44.676Z,77.46
2017-12-11T12:04:12.296Z,77.17
2017-12-11T12:06:39.904Z,77.12
2017-12-11T12:09:07.568Z,77.68
2017-12-11T12:11:35.159Z,77.87
2017-12-11T12:14:02.826Z,77.49
2017-12-11T12:16:30.431Z,77.20
2017-12-11T12:18:58.008Z,77.46
2017-12-11T12:21:25.633Z,77.20
2017-12-11T12:23:53.282Z,77.28
2017-12-11T12:26:21.152Z,77.05
2017-12-11T12:28:48.828Z,77.30
2017-12-11T12:31:16.412Z,76.85
2017-12-11T12:33:44.196Z,76.81
2017-12-11T12:36:11.909Z,76.76
2017-12-11T12:38:39.506Z,76.94
2017-12-11T12:41:07.121Z,76.99
2017-12-11T12:43:35.412Z,76.62
2017-12-11T12:46:03.081Z,76.78
2017-12-11T12:48:30.722Z,77.07
2017-12-11T12:50:58.605Z,77.13
2017-12-11T12:53:26.243Z,77.40
2017-12-11T12:55:53.845Z,77.41
2017-12-11T12:58:21.801Z,77.98
2017-12-11T13:00:49.420Z,78.33
2017-12-11T13:03:17.032Z,78.56
2017-12-11T13:05:44.652Z,78.87
2017-12-11T13:08:12.242Z,79.00
2017-12-11T13:10:39.933Z,78.83
2017-12-11T13:13:07.540Z,79.00
2017-12-11T13:15:35.440Z,79.57
2017-12-11T13:18:03.184Z,79.88
2017-12-11T13:20:30.833Z,80.12
2017-12-11T13:22:58.494Z,80.91
2017-12-11T13:25:26.109Z,81.46
2017-12-11T13:27:53.718Z,81.45
2017-12-11T13:30:21.380Z,81.32
2017-12-11T13:32:49.246Z,81.58
2017-12-11T13:35:16.908Z,80.39
2017-12-11T13:37:44.481Z,80.23
2017-12-11T13:40:12.069Z,81.06
2017-12-11T13:42:39.694Z,80.94
2017-12-11T13:45:07.324Z,80.67
2017-12-11T13:47:35.192Z,80.13
2017-12-11T13:50:02.776Z,80.04
2017-12-11T13:52:30.374Z,79.44
2017-12-11T13:54:58.257Z,79.69
2017-12-11T13:57:26.629Z,79.99
2017-12-11T13:59:55.120Z,80.02
2017-12-11T14:02:22.706Z,79.99
2017-12-11T14:04:50.296Z,79.69
2017-12-11T14:07:17.988Z,80.20
2017-12-11T14:09:45.626Z,79.77
2017-12-11T14:12:13.265Z,79.53
2017-12-11T14:14:40.921Z,79.70
2017-12-11T14:17:08.500Z,78.90
2017-12-11T14:19:36.128Z,78.88
2017-12-11T14:22:03.716Z,78.54
2017-12-11T14:24:31.349Z,79.36
2017-12-11T14:26:58.934Z,78.82
2017-12-11T14:29:26.678Z,79.33
2017-12-11T14:31:54.335Z,79.14
2017-12-11T14:34:21.933Z,79.19
2017-12-11T14:36:49.864Z,79.54
2017-12-11T14:39:17.448Z,79.13
2017-12-11T14:41:45.025Z,79.34
2017-12-11T14:44:12.648Z,79.93
2017-12-11T14:46:40.400Z,80.60
2017-12-11T14:49:08.054Z,79.89
2017-12-11T14:51:35.717Z,80.22
2017-12-11T14:54:03.319Z,80.42
2017-12-11T14:56:30.981Z,80.56
2017-12-11T14:58:58.574Z,80.16
2017-12-11T15:01:26.303Z,80.56
2017-12-11T15:03:53.890Z,80.60
2017-12-11T15:06:21.524Z,80.27
2017-12-11T15:08:49.192Z,80.63
2017-12-11T15:11:16.780Z,81.08
2017-12-11T15:13:44.410Z,81.46
2017-12-11T15:16:12.070Z,81.92
2017-12-11T15:18:39.807Z,82.51
2017-12-11T15:21:07.520Z,82.77
2017-12-11T15:23:35.157Z,82.88
2017-12-11T15:26:02.938Z,83.48
2017-12-11T15:28:30.582Z,84.02
2017-12-11T15:30:58.219Z,84.02
2017-12-11T15:33:26.116Z,83.77
2017-12-11T15:35:53.984Z,83.90
2017-12-11T15:38:21.627Z,84.47
2017-12-11T15:40:49.252Z,84.71
2017-12-11T15:43:16.852Z,84.79
2017-12-11T15:45:44.472Z,84.81
2017-12-11T15:48:12.088Z,84.95
2017-12-11T15:50:39.735Z,85.01
2017-12-11T15:53:07.473Z,85.22
2017-12-11T15:55:35.387Z,85.60
2017-12-11T15:58:03.006Z,85.93
2017-12-11T16:00:30.613Z,86.06
2017-12-11T16:02:58.267Z,86.30
2017-12-11T16:05:25.938Z,86.50
2017-12-11T16:07:53.597Z,86.96
2017-12-11T16:10:21.215Z,87.35
2017-12-11T16:12:48.812Z,87.27
2017-12-11T16:15:16.457Z,87.51
2017-12-11T16:17:44.037Z,87.17
2017-12-11T16:20:11.710Z,87.52
2017-12-11T16:22:39.337Z,87.72
2017-12-11T16:25:06.922Z,88.06
2017-12-11T16:27:34.564Z,88.34
2017-12-11T16:30:02.269Z,88.21
2017-12-11T16:32:29.862Z,88.45
2017-12-11T16:34:57.477Z,88.79
2017-12-11T16:37:25.089Z,89.18
2017-12-11T16:39:52.708Z,89.29
2017-12-11T16:42:20.326Z,89.64
2017-12-11T16:44:47.910Z,89.95
2017-12-11T16:47:15.529Z,90.12
2017-12-11T16:49:43.108Z,90.34
2017-12-11T16:52:10.736Z,90.37
2017-12-11T16:54:38.577Z,90.61
2017-12-11T16:57:06.228Z,90.85
2017-12-11T16:59:33.844Z,90.86
2017-12-11T17:02:01.446Z,91.02
2017-12-11T17:04:29.732Z,91.29
2017-12-11T17:06:57.695Z,91.42
2017-12-11T17:09:25.331Z,91.32
2017-12-11T17:11:53.248Z,91.49
2017-12-11T17:14:20.860Z,91.55
2017-12-11T17:16:49.556Z,91.76
2017-12-11T17:19:17.466Z,91.95
2017-12-11T17:21:45.251Z,92.04
2017-12-11T17:24:12.972Z,92.07
2017-12-11T17:26:40.668Z,92.07
2017-12-11T17:29:08.278Z,92.15
2017-12-11T17:31:35.857Z,92.16
2017-12-11T17:34:03.485Z,92.22
2017-12-11T17:36:31.065Z,92.11
2017-12-11T17:38:58.773Z,92.23
2017-12-11T17:41:26.389Z,92.19
2017-12-11T17:43:54.000Z,92.39
2017-12-11T17:46:21.657Z,92.44
2017-12-11T17:48:49.255Z,92.39
2017-12-11T17:51:16.833Z,92.40
2017-12-11T17:53:44.477Z,92.54
2017-12-11T17:56:12.054Z,92.69
2017-12-11T17:58:47.688Z,92.73
2017-12-11T18:01:15.265Z,92.80
2017-12-11T18:03:43.181Z,92.83
2017-12-11T18:06:10.882Z,92.69
2017-12-11T18:08:38.465Z,93.06
2017-12-11T18:11:06.080Z,93.34
2017-12-11T18:13:33.683Z,93.43
2017-12-11T18:16:01.273Z,93.31
2017-12-11T18:18:28.903Z,93.38
2017-12-11T18:20:56.505Z,93.39
2017-12-11T18:23:34.534Z,93.39
2017-12-11T18:26:02.358Z,93.25
2017-12-11T18:28:29.961Z,93.44
2017-12-11T18:30:57.610Z,93.59
2017-12-11T18:33:25.296Z,93.65
2017-12-11T18:35:52.940Z,93.63
2017-12-11T18:38:20.601Z,93.64
2017-12-11T18:40:48.176Z,93.63
2017-12-11T18:43:15.804Z,93.73
2017-12-11T18:45:43.404Z,93.80
2017-12-11T18:48:11.886Z,93.99
2017-12-11T18:50:39.836Z,94.13
2017-12-11T18:53:07.412Z,94.01
2017-12-11T18:55:35.004Z,94.16
2017-12-11T18:58:02.655Z,94.21
2017-12-11T19:00:30.276Z,94.02
2017-12-11T19:02:58.039Z,94.00
2017-12-11T19:05:25.647Z,94.18
2017-12-11T19:07:53.285Z,94.19
2017-12-11T19:10:20.865Z,94.16
2017-12-11T19:12:48.810Z,94.19
2017-12-11T19:15:16.393Z,94.33
2017-12-11T19:17:44.238Z,94.38
2017-12-11T19:20:12.209Z,94.26
2017-12-11T19:22:39.850Z,94.38
2017-12-11T19:25:07.504Z,94.39
2017-12-11T19:27:35.099Z,93.97
2017-12-11T19:30:02.703Z,93.96
2017-12-11T19:32:30.335Z,93.85
2017-12-11T19:34:57.909Z,93.82
2017-12-11T19:37:26.196Z,93.94
2017-12-11T19:39:54.127Z,93.78
2017-12-11T19:42:21.798Z,93.75
2017-12-11T19:44:49.395Z,93.59
2017-12-11T19:47:16.976Z,93.65
2017-12-11T19:49:44.713Z,93.75
2017-12-11T19:52:12.588Z,93.74
2017-12-11T19:54:40.528Z,93.46
2017-12-11T19:57:08.164Z,93.52
2017-12-11T19:59:35.773Z,93.53
2017-12-11T20:02:03.429Z,93.86
2017-12-11T20:04:31.098Z,93.68
2017-12-11T20:06:58.812Z,93.61
2017-12-11T20:09:26.735Z,93.94
2017-12-11T20:11:54.366Z,94.13
2017-12-11T20:14:21.992Z,94.13
2017-12-11T20:16:49.646Z,93.83
2017-12-11T20:19:17.332Z,93.37
2017-12-11T20:21:44.937Z,93.21
2017-12-11T20:24:12.518Z,92.90
2017-12-11T20:26:40.151Z,93.01
2017-12-11T20:29:07.736Z,92.66
2017-12-11T20:31:35.354Z,92.72
2017-12-11T20:34:02.966Z,92.82
2017-12-11T20:36:30.559Z,92.48
2017-12-11T20:38:58.218Z,92.67
2017-12-11T20:41:25.941Z,92.97
2017-12-11T20:43:53.540Z,92.68
2017-12-11T20:46:21.168Z,92.35
2017-12-11T20:48:48.900Z,92.47
2017-12-11T20:51:16.586Z,92.56
2017-12-11T20:53:44.173Z,92.62
2017-12-11T20:56:12.093Z,92.45
2017-12-11T20:58:39.716Z,92.41
2017-12-11T21:01:07.620Z,92.09
2017-12-11T21:03:36.134Z,92.43
2017-12-11T21:06:03.717Z,92.81
2017-12-11T21:08:31.569Z,92.90
2017-12-11T21:10:59.177Z,93.09
2017-12-11T21:13:26.749Z,92.55
2017-12-11T21:15:54.375Z,92.82
2017-12-11T21:18:22.295Z,92.90
2017-12-11T21:20:50.094Z,92.91
2017-12-11T21:23:17.720Z,92.88
2017-12-11T21:25:45.379Z,92.98
2017-12-11T21:28:13.017Z,92.93
2017-12-11T21:30:40.604Z,92.99
2017-12-11T21:33:08.179Z,92.86
2017-12-11T21:35:35.804Z,92.95
2017-12-11T21:38:03.702Z,93.09
2017-12-11T21:40:31.344Z,93.07
2017-12-11T21:42:58.975Z,93.13
2017-12-11T21:45:26.895Z,92.96
2017-12-11T21:47:54.721Z,93.03
2017-12-11T21:50:22.312Z,93.10
2017-12-11T21:52:49.958Z,93.11
2017-12-11T21:55:17.544Z,93.12
2017-12-11T21:57:45.128Z,93.17
2017-12-11T22:00:13.182Z,93.03
2017-12-11T22:02:40.777Z,93.17
2017-12-11T22:05:08.503Z,93.24
2017-12-11T22:07:36.100Z,93.35
2017-12-11T22:10:03.686Z,93.49
2017-12-11T22:12:31.305Z,93.42
2017-12-11T22:14:58.889Z,93.44
2017-12-11T22:17:26.822Z,93.49
2017-12-11T22:19:54.682Z,93.54
2017-12-11T22:22:22.382Z,93.51
2017-12-11T22:24:49.986Z,93.45
2017-12-11T22:27:17.626Z,93.60
2017-12-11T22:29:45.536Z,93.67
2017-12-11T22:32:13.132Z,93.39
2017-12-11T22:34:41.176Z,93.43
2017-12-11T22:37:08.839Z,93.63
2017-12-11T22:39:36.700Z,93.60
2017-12-11T22:42:04.609Z,93.46
2017-12-11T22:44:32.202Z,93.46
2017-12-11T22:46:59.799Z,93.41
2017-12-11T22:49:27.423Z,93.39
2017-12-11T22:51:55.016Z,93.47
2017-12-11T22:54:22.644Z,93.43
2017-12-11T22:56:50.272Z,93.49
2017-12-11T22:59:17.896Z,93.42
2017-12-11T23:01:45.510Z,93.47
2017-12-11T23:04:13.088Z,93.59
2017-12-11T23:06:41.223Z,93.58
2017-12-11T23:09:08.822Z,93.63
2017-12-11T23:11:36.729Z,93.68
2017-12-11T23:14:04.336Z,93.74
2017-12-11T23:16:31.926Z,93.73
2017-12-11T23:18:59.553Z,93.75
2017-12-11T23:21:27.144Z,93.79
2017-12-11T23:23:54.719Z,93.77
2017-12-11T23:26:22.334Z,93.81
2017-12-11T23:28:50.020Z,93.75
2017-12-11T23:31:17.669Z,93.75
2017-12-11T23:33:45.332Z,93.73
2017-12-11T23:36:13.158Z,93.74
2017-12-11T23:38:40.760Z,93.77
2017-12-11T23:41:08.331Z,93.78
2017-12-11T23:43:36.253Z,93.78
2017-12-11T23:46:03.835Z,93.84
2017-12-11T23:48:31.681Z,93.68
2017-12-11T23:50:59.289Z,93.61
2017-12-11T23:53:26.987Z,93.55
2017-12-11T23:55:54.873Z,93.43
2017-12-11T23:58:22.459Z,93.46
